createdAt,value
2018-08-21T00:00:22.112Z,82.31
2018-08-21T00:02:51.221Z,81.57
2018-08-21T00:05:20.286Z,79.37
2018-08-21T00:07:49.345Z,80.42
2018-08-21T00:12:54.154Z,84.01
2018-08-21T00:15:23.206Z,81.52
2018-08-21T00:17:52.255Z,84.41
2018-08-21T00:20:21.310Z,83.08
2018-08-21T00:22:50.365Z,82.85
2018-08-21T00:25:19.421Z,81.24
2018-08-21T00:30:24.306Z,81.16
2018-08-21T00:32:53.409Z,81.39
2018-08-21T00:35:22.454Z,83.80
2018-08-21T00:37:51.508Z,84.28
2018-08-21T00:40:20.553Z,83.35
2018-08-21T00:42:49.630Z,84.98
2018-08-21T00:47:54.421Z,85.41
2018-08-21T00:50:24.388Z,85.32
2018-08-21T00:52:53.445Z,85.68
2018-08-21T00:57:59.291Z,86.43
2018-08-21T01:00:28.371Z,86.41
2018-08-21T01:02:57.446Z,84.95
2018-08-21T01:05:26.517Z,86.77
2018-08-21T01:10:31.383Z,83.44
2018-08-21T01:13:00.432Z,82.08
2018-08-21T01:15:31.564Z,82.42
2018-08-21T01:18:00.609Z,86.67
2018-08-21T01:23:05.454Z,86.54
2018-08-21T01:25:34.564Z,83.55
2018-08-21T01:28:03.642Z,85.51
2018-08-21T01:30:33.720Z,86.19
2018-08-21T01:33:02.779Z,87.83
2018-08-21T01:35:31.839Z,84.94
2018-08-21T01:38:00.905Z,89.03
2018-08-21T01:40:29.965Z,89.45
2018-08-21T01:42:59.137Z,87.84
2018-08-21T01:45:28.185Z,88.49
2018-08-21T01:48:02.077Z,89.00
2018-08-21T01:50:36.333Z,87.35
2018-08-21T01:55:41.649Z,85.47
2018-08-21T01:58:10.700Z,86.67
2018-08-21T02:00:39.745Z,87.88
2018-08-21T02:03:09.764Z,88.37
2018-08-21T02:05:39.738Z,89.86
2018-08-21T02:08:08.774Z,89.98
2018-08-21T02:14:09.295Z,91.02
2018-08-21T02:19:14.065Z,91.33
2018-08-21T02:21:44.077Z,90.34
2018-08-21T02:24:13.130Z,89.88
2018-08-21T02:26:42.189Z,89.21
2018-08-21T02:29:11.263Z,88.96
2018-08-21T02:31:40.305Z,90.37
2018-08-21T02:34:09.397Z,91.86
2018-08-21T02:41:51.026Z,90.51
2018-08-21T02:44:20.096Z,92.03
2018-08-21T02:46:50.098Z,93.25
2018-08-21T02:51:54.885Z,91.99
2018-08-21T02:54:23.932Z,91.06
2018-08-21T02:56:52.983Z,92.81
2018-08-21T03:01:57.850Z,92.05
2018-08-21T03:04:26.905Z,90.57
2018-08-21T03:09:31.675Z,91.47
2018-08-21T03:14:36.437Z,88.27
2018-08-21T03:17:05.501Z,88.65
2018-08-21T03:19:34.605Z,88.76
2018-08-21T03:22:03.657Z,91.98
2018-08-21T03:24:32.714Z,92.90
2018-08-21T03:27:01.781Z,92.29
2018-08-21T03:29:31.824Z,93.49
2018-08-21T03:34:36.601Z,91.00
2018-08-21T03:39:41.842Z,92.07
2018-08-21T03:42:12.890Z,93.75
2018-08-21T03:44:43.930Z,93.47
2018-08-21T03:47:12.992Z,93.96
2018-08-21T03:49:42.063Z,94.87
2018-08-21T03:52:11.118Z,93.80
2018-08-21T03:57:15.891Z,93.35
2018-08-21T03:59:44.968Z,92.74
2018-08-21T04:02:14.929Z,93.93
2018-08-21T04:04:44.018Z,92.86
2018-08-21T04:09:48.862Z,90.85
2018-08-21T04:14:53.734Z,93.15
2018-08-21T04:17:22.788Z,94.19
2018-08-21T04:22:27.558Z,92.31
2018-08-21T04:27:32.405Z,92.70
2018-08-21T04:30:01.485Z,90.54
2018-08-21T04:32:30.623Z,93.11
2018-08-21T04:34:59.639Z,93.98
2018-08-21T04:37:28.693Z,93.73
2018-08-21T04:42:33.567Z,91.60
2018-08-21T04:45:03.597Z,91.45
2018-08-21T04:47:32.659Z,92.13
2018-08-21T04:50:01.719Z,93.31
2018-08-21T04:52:30.808Z,93.35
2018-08-21T04:55:00.770Z,94.74
2018-08-21T04:57:30.876Z,94.01
2018-08-21T04:59:59.913Z,94.37
2018-08-21T05:02:28.987Z,92.35
2018-08-21T05:07:33.762Z,91.47
2018-08-21T05:15:14.365Z,92.00
2018-08-21T05:20:19.129Z,90.98
2018-08-21T05:22:48.181Z,90.40
2018-08-21T05:27:53.025Z,89.91
2018-08-21T05:30:22.114Z,88.76
2018-08-21T05:32:51.199Z,89.80
2018-08-21T05:35:20.290Z,88.94
2018-08-21T05:37:49.347Z,88.30
2018-08-21T05:40:18.415Z,88.24
2018-08-21T05:42:47.605Z,87.68
2018-08-21T05:45:17.523Z,87.66
2018-08-21T05:47:46.796Z,87.38
2018-08-21T05:50:16.801Z,87.62
2018-08-21T05:55:21.747Z,86.35
2018-08-21T05:57:52.341Z,85.50
2018-08-21T06:00:34.518Z,84.89
2018-08-21T06:03:16.391Z,84.96
2018-08-21T06:08:32.446Z,84.55
2018-08-21T06:11:01.879Z,83.46
2018-08-21T06:13:31.342Z,83.35
2018-08-21T06:16:01.297Z,82.07
2018-08-21T06:18:30.622Z,82.42
2018-08-21T06:21:00.054Z,82.19
2018-08-21T06:23:30.335Z,81.95
2018-08-21T06:26:00.199Z,81.49
2018-08-21T06:31:05.084Z,80.68
2018-08-21T06:33:34.259Z,80.52
2018-08-21T06:36:03.579Z,80.15
2018-08-21T06:38:32.621Z,78.83
2018-08-21T06:41:01.672Z,79.13
2018-08-21T06:43:30.767Z,78.28
2018-08-21T06:45:59.822Z,76.71
2018-08-21T06:51:04.683Z,75.40
2018-08-21T06:53:34.814Z,75.90
2018-08-21T06:56:03.858Z,74.80
2018-08-21T07:01:08.652Z,75.31
2018-08-21T07:03:38.761Z,73.02
2018-08-21T07:06:07.824Z,71.56
2018-08-21T07:08:36.879Z,70.97
2018-08-21T07:11:05.963Z,71.70
2018-08-21T07:13:35.027Z,70.62
2018-08-21T07:18:39.876Z,70.45
2018-08-21T07:23:44.730Z,70.80
2018-08-21T07:28:49.537Z,69.66
2018-08-21T07:31:18.605Z,67.94
2018-08-21T07:33:47.694Z,68.35
2018-08-21T07:36:16.721Z,68.60
2018-08-21T07:38:45.783Z,68.71
2018-08-21T07:43:52.083Z,67.35
2018-08-21T07:46:21.344Z,66.73
2018-08-21T07:48:51.307Z,66.27
2018-08-21T07:51:20.357Z,65.51
2018-08-21T07:53:49.402Z,64.04
2018-08-21T07:56:18.454Z,65.92
2018-08-21T07:58:49.734Z,64.41
2018-08-21T08:01:18.802Z,64.30
2018-08-21T08:03:47.858Z,63.36
2018-08-21T08:11:29.486Z,60.44
2018-08-21T08:14:00.411Z,61.03
2018-08-21T08:16:30.353Z,59.62
2018-08-21T08:18:59.438Z,60.47
2018-08-21T08:21:28.459Z,59.74
2018-08-21T08:23:58.447Z,61.54
2018-08-21T08:29:03.371Z,58.40
2018-08-21T08:31:32.407Z,60.01
2018-08-21T08:36:37.305Z,56.97
2018-08-21T08:39:06.794Z,56.04
2018-08-21T08:41:35.919Z,55.45
2018-08-21T08:44:04.956Z,53.97
2018-08-21T08:46:34.158Z,56.42
2018-08-21T08:49:03.218Z,54.41
2018-08-21T08:51:33.246Z,53.76
2018-08-21T08:56:38.071Z,52.42
2018-08-21T08:59:07.205Z,52.87
2018-08-21T09:01:36.257Z,48.63
2018-08-21T09:04:06.271Z,48.95
2018-08-21T09:06:35.324Z,48.75
2018-08-21T09:09:04.393Z,45.29
2018-08-21T09:11:33.450Z,45.69
2018-08-21T09:14:03.494Z,41.76
2018-08-21T09:16:33.537Z,39.77
2018-08-21T09:21:38.382Z,39.77
2018-08-21T09:26:43.369Z,36.92
2018-08-21T09:29:12.577Z,37.85
2018-08-21T09:31:41.660Z,39.24
2018-08-21T09:36:46.592Z,40.04
2018-08-21T09:39:15.662Z,35.26
2018-08-21T09:41:44.789Z,38.45
2018-08-21T09:46:49.635Z,35.98
2018-08-21T09:49:18.702Z,36.66
2018-08-21T09:51:48.794Z,31.53
2018-08-21T09:54:17.786Z,31.62
2018-08-21T09:56:46.835Z,33.22
2018-08-21T09:59:16.542Z,30.82
2018-08-21T10:01:45.577Z,31.41
2018-08-21T10:04:14.629Z,31.04
2018-08-21T10:06:44.738Z,29.10
2018-08-21T10:09:15.609Z,30.55
2018-08-21T10:11:45.608Z,32.08
2018-08-21T10:14:27.132Z,29.96
2018-08-21T10:16:56.633Z,32.44
2018-08-21T10:19:25.729Z,33.18
2018-08-21T10:21:54.758Z,28.32
2018-08-21T10:24:23.868Z,27.77
2018-08-21T10:26:53.845Z,31.94
2018-08-21T10:29:23.027Z,30.28
2018-08-21T10:31:52.041Z,27.40
2018-08-21T10:34:21.197Z,26.76
2018-08-21T10:36:50.250Z,32.55
2018-08-21T10:39:19.281Z,31.22
2018-08-21T10:41:51.503Z,33.85
2018-08-21T10:44:20.541Z,33.59
2018-08-21T10:46:50.644Z,32.35
2018-08-21T10:49:19.689Z,28.61
2018-08-21T10:51:48.811Z,28.70
2018-08-21T10:56:53.534Z,26.36
2018-08-21T10:59:22.579Z,30.84
2018-08-21T11:04:27.351Z,25.83
2018-08-21T11:06:56.430Z,25.79
2018-08-21T11:09:26.412Z,24.31
2018-08-21T11:11:55.448Z,23.35
2018-08-21T11:14:24.507Z,24.39
2018-08-21T11:16:53.562Z,26.63
2018-08-21T11:19:22.714Z,23.90
2018-08-21T11:21:52.751Z,27.97
2018-08-21T11:24:22.410Z,26.03
2018-08-21T11:26:51.477Z,23.66
2018-08-21T11:29:20.880Z,23.08
2018-08-21T11:31:49.990Z,23.54
2018-08-21T11:36:55.105Z,23.30
2018-08-21T11:39:24.163Z,25.77
2018-08-21T11:41:53.231Z,23.84
2018-08-21T11:44:22.294Z,23.19
2018-08-21T11:46:51.349Z,22.95
2018-08-21T11:49:20.405Z,23.51
2018-08-21T11:51:49.473Z,22.07
2018-08-21T11:54:18.520Z,21.99
2018-08-21T11:56:48.487Z,21.09
2018-08-21T11:59:17.536Z,26.29
2018-08-21T12:01:46.591Z,21.64
2018-08-21T12:04:16.758Z,23.72
2018-08-21T12:06:45.829Z,22.21
2018-08-21T12:09:14.882Z,23.59
2018-08-21T12:11:44.003Z,25.48
2018-08-21T12:14:13.101Z,28.21
2018-08-21T12:16:42.168Z,24.82
2018-08-21T12:19:11.222Z,22.12
2018-08-21T12:21:40.281Z,20.59
2018-08-21T12:24:09.355Z,20.46
2018-08-21T12:26:38.497Z,21.94
2018-08-21T12:31:43.238Z,20.98
2018-08-21T12:34:12.359Z,19.81
2018-08-21T12:36:41.347Z,18.23
2018-08-21T12:39:10.653Z,20.88
2018-08-21T12:41:39.703Z,20.97
2018-08-21T12:44:08.755Z,22.14
2018-08-21T12:46:41.269Z,23.61
2018-08-21T12:49:10.343Z,19.43
2018-08-21T12:51:39.407Z,19.38
2018-08-21T12:54:08.479Z,23.69
2018-08-21T12:56:37.535Z,21.75
2018-08-21T12:59:06.660Z,20.71
2018-08-21T13:01:35.694Z,19.35
2018-08-21T13:06:40.551Z,24.64
2018-08-21T13:09:09.579Z,28.36
2018-08-21T13:11:39.718Z,23.97
2018-08-21T13:14:08.766Z,21.44
2018-08-21T13:19:13.529Z,23.92
2018-08-21T13:21:42.605Z,21.20
2018-08-21T13:24:11.719Z,23.14
2018-08-21T13:29:21.898Z,21.42
2018-08-21T13:42:17.397Z,21.41
2018-08-21T13:44:46.437Z,20.48
2018-08-21T13:47:16.499Z,19.07
2018-08-21T13:49:45.571Z,20.32
2018-08-21T13:52:14.631Z,21.70
2018-08-21T13:54:46.944Z,19.83
2018-08-21T13:57:16.974Z,23.05
2018-08-21T13:59:46.026Z,24.61
2018-08-21T14:02:15.090Z,22.84
2018-08-21T14:04:44.154Z,20.59
2018-08-21T14:07:13.212Z,19.86
2018-08-21T14:09:42.265Z,19.97
2018-08-21T14:12:11.337Z,21.50
2018-08-21T14:14:40.441Z,23.19
2018-08-21T14:17:09.472Z,24.27
2018-08-21T14:19:38.560Z,24.52
2018-08-21T14:22:07.813Z,25.22
2018-08-21T14:24:36.866Z,22.24
2018-08-21T14:27:05.916Z,19.85
2018-08-21T14:29:35.058Z,20.55
2018-08-21T14:32:05.078Z,19.83
2018-08-21T14:34:34.137Z,23.13
2018-08-21T14:37:03.191Z,23.25
2018-08-21T14:39:32.253Z,23.41
2018-08-21T14:42:01.324Z,20.64
2018-08-21T14:44:30.379Z,20.55
2018-08-21T14:47:00.397Z,25.62
2018-08-21T14:49:29.458Z,24.13
2018-08-21T14:51:58.682Z,24.50
2018-08-21T14:54:27.723Z,22.08
2018-08-21T14:56:56.824Z,24.57
2018-08-21T14:59:26.185Z,26.78
2018-08-21T15:01:56.218Z,26.19
2018-08-21T15:04:25.267Z,26.09
2018-08-21T15:06:54.325Z,22.25
2018-08-21T15:09:23.421Z,21.07
2018-08-21T15:11:52.476Z,23.09
2018-08-21T15:14:21.525Z,20.27
2018-08-21T15:16:50.602Z,22.62
2018-08-21T15:19:19.719Z,23.60
2018-08-21T15:21:50.783Z,20.80
2018-08-21T15:24:19.839Z,20.55
2018-08-21T15:26:49.150Z,19.99
2018-08-21T15:29:18.209Z,21.30
2018-08-21T15:31:47.276Z,22.93
2018-08-21T15:34:16.328Z,21.50
2018-08-21T15:36:45.385Z,21.06
2018-08-21T15:41:50.125Z,26.06
2018-08-21T15:44:19.227Z,26.55
2018-08-21T15:46:49.227Z,27.73
2018-08-21T15:49:18.317Z,27.54
2018-08-21T15:51:47.487Z,27.64
2018-08-21T15:54:16.626Z,27.83
2018-08-21T15:56:45.677Z,26.89
2018-08-21T15:59:15.625Z,27.71
2018-08-21T16:01:44.645Z,26.79
2018-08-21T16:04:13.878Z,25.95
2018-08-21T16:06:43.230Z,27.17
2018-08-21T16:09:12.331Z,29.70
2018-08-21T16:11:42.526Z,27.40
2018-08-21T16:14:12.486Z,26.27
2018-08-21T16:16:41.545Z,26.10
2018-08-21T16:19:10.705Z,27.53
2018-08-21T16:24:15.605Z,30.60
2018-08-21T16:26:44.670Z,32.77
2018-08-21T16:29:13.747Z,33.11
2018-08-21T16:31:43.088Z,33.18
2018-08-21T16:34:12.162Z,35.46
2018-08-21T16:36:41.208Z,34.98
2018-08-21T16:41:46.158Z,36.17
2018-08-21T16:46:50.987Z,37.16
2018-08-21T16:49:20.052Z,38.15
2018-08-21T16:51:49.090Z,38.89
2018-08-21T16:56:53.918Z,39.33
2018-08-21T16:59:24.614Z,38.90
2018-08-21T17:01:59.825Z,39.70
2018-08-21T17:04:30.790Z,41.15
2018-08-21T17:07:04.336Z,40.84
2018-08-21T17:09:33.728Z,41.08
2018-08-21T17:12:02.782Z,42.33
2018-08-21T17:14:31.857Z,43.20
2018-08-21T17:17:00.924Z,42.68
2018-08-21T17:19:29.981Z,43.58
2018-08-21T17:21:59.037Z,43.71
2018-08-21T17:24:28.101Z,43.98
2018-08-21T17:29:33.034Z,43.60
2018-08-21T17:32:02.068Z,44.39
2018-08-21T17:34:31.111Z,45.48
2018-08-21T17:37:00.226Z,44.19
2018-08-21T17:39:29.474Z,46.04
2018-08-21T17:41:58.516Z,45.70
2018-08-21T17:44:27.573Z,47.62
2018-08-21T17:46:56.694Z,48.50
2018-08-21T17:49:25.689Z,47.64
2018-08-21T17:51:54.783Z,47.38
2018-08-21T17:54:23.873Z,46.77
2018-08-21T17:56:52.975Z,47.86
2018-08-21T17:59:22.231Z,46.84
2018-08-21T18:04:27.074Z,49.34
2018-08-21T18:09:31.902Z,48.10
2018-08-21T18:12:00.980Z,49.82
2018-08-21T18:14:31.016Z,51.10
2018-08-21T18:17:00.096Z,51.16
2018-08-21T18:19:29.158Z,52.69
2018-08-21T18:21:58.219Z,51.38
2018-08-21T18:24:27.294Z,54.21
2018-08-21T18:29:33.362Z,51.67
2018-08-21T18:32:04.250Z,51.80
2018-08-21T18:34:33.298Z,54.25
2018-08-21T18:37:02.383Z,52.75
2018-08-21T18:39:35.401Z,53.34
2018-08-21T18:42:09.404Z,55.34
2018-08-21T18:44:42.606Z,57.13
2018-08-21T18:47:15.928Z,57.00
2018-08-21T18:49:49.625Z,58.86
2018-08-21T18:54:59.861Z,56.70
2018-08-21T18:57:32.857Z,59.58
2018-08-21T19:00:06.318Z,57.31
2018-08-21T19:02:38.466Z,60.81
2018-08-21T19:07:43.412Z,61.62
2018-08-21T19:12:44.937Z,61.85
2018-08-21T19:17:49.360Z,60.18
2018-08-21T19:20:18.445Z,62.97
2018-08-21T19:22:47.557Z,63.71
2018-08-21T19:25:17.680Z,61.72
2018-08-21T19:27:53.497Z,64.93
2018-08-21T19:30:31.761Z,64.24
2018-08-21T19:35:50.093Z,60.34
2018-08-21T19:38:22.716Z,63.46
2018-08-21T19:40:56.894Z,62.53
2018-08-21T19:43:29.261Z,62.19
2018-08-21T19:51:12.200Z,64.12
2018-08-21T19:53:43.871Z,63.34
2018-08-21T19:56:24.512Z,63.56
2018-08-21T19:58:59.036Z,63.61
2018-08-21T20:01:31.193Z,64.42
2018-08-21T20:04:00.395Z,69.02
2018-08-21T20:09:05.771Z,65.93
2018-08-21T20:11:34.819Z,68.47
2018-08-21T20:16:39.629Z,67.60
2018-08-21T20:19:08.735Z,69.81
2018-08-21T20:21:38.711Z,68.11
2018-08-21T20:24:07.770Z,73.57
2018-08-21T20:26:36.826Z,71.41
2018-08-21T20:31:42.012Z,69.42
2018-08-21T20:34:11.074Z,70.08
2018-08-21T20:36:40.209Z,70.92
2018-08-21T20:41:44.951Z,67.82
2018-08-21T20:44:14.025Z,67.35
2018-08-21T20:46:43.065Z,72.36
2018-08-21T20:49:12.126Z,72.36
2018-08-21T20:51:41.187Z,72.39
2018-08-21T20:54:10.231Z,74.80
2018-08-21T20:56:39.298Z,72.61
2018-08-21T20:59:08.391Z,73.74
2018-08-21T21:01:39.349Z,73.69
2018-08-21T21:04:08.410Z,74.32
2018-08-21T21:06:37.457Z,74.29
2018-08-21T21:09:06.519Z,74.88
2018-08-21T21:11:35.573Z,75.93
2018-08-21T21:14:22.645Z,72.23
2018-08-21T21:17:09.359Z,75.97
2018-08-21T21:19:56.320Z,73.54
2018-08-21T21:27:39.870Z,73.69
2018-08-21T21:30:08.944Z,77.73
2018-08-21T21:32:38.001Z,79.25
2018-08-21T21:35:07.070Z,78.90
2018-08-21T21:37:39.167Z,79.40
2018-08-21T21:40:08.272Z,79.27
2018-08-21T21:42:37.336Z,78.29
2018-08-21T21:45:06.400Z,79.96
2018-08-21T21:47:35.494Z,77.08
2018-08-21T21:52:41.792Z,76.49
2018-08-21T21:55:10.863Z,80.19
2018-08-21T21:57:39.906Z,77.70
2018-08-21T22:00:08.977Z,80.93
2018-08-21T22:02:38.045Z,80.38
2018-08-21T22:05:07.158Z,78.26
2018-08-21T22:07:36.208Z,80.91
2018-08-21T22:10:05.335Z,77.03
2018-08-21T22:12:34.381Z,80.61
2018-08-21T22:15:03.465Z,81.30
2018-08-21T22:20:10.284Z,76.89
2018-08-21T22:22:39.334Z,79.45
2018-08-21T22:25:08.385Z,81.71
2018-08-21T22:27:37.454Z,80.62
2018-08-21T22:30:06.513Z,80.31
2018-08-21T22:32:35.579Z,82.11
2018-08-21T22:35:04.630Z,82.38
2018-08-21T22:37:33.693Z,82.62
2018-08-21T22:42:38.549Z,84.53
2018-08-21T22:45:07.608Z,81.12
2018-08-21T22:47:36.694Z,81.77
2018-08-21T22:50:05.730Z,83.42
2018-08-21T22:52:34.883Z,83.52
2018-08-21T22:55:03.929Z,84.29
2018-08-21T23:00:08.786Z,80.18
2018-08-21T23:02:37.847Z,79.06
2018-08-21T23:10:19.486Z,83.64
2018-08-21T23:12:49.549Z,84.55
2018-08-21T23:15:19.567Z,81.15
2018-08-21T23:17:48.808Z,84.08
2018-08-21T23:20:17.879Z,82.58
2018-08-21T23:22:46.966Z,84.89
2018-08-21T23:25:16.025Z,85.23
2018-08-21T23:27:45.077Z,87.53
2018-08-21T23:30:14.173Z,88.61
2018-08-21T23:32:44.163Z,87.71
2018-08-21T23:35:13.226Z,87.99
2018-08-21T23:37:42.309Z,88.52
2018-08-21T23:40:11.368Z,87.56
2018-08-21T23:42:40.417Z,89.21
2018-08-21T23:45:09.466Z,87.06
2018-08-21T23:50:14.387Z,83.56
2018-08-21T23:52:43.503Z,82.77
2018-08-21T23:55:12.568Z,87.01
2018-08-21T23:57:41.625Z,84.24
